KMAF

Midland International Air and Space Port Airport

Midland, Texas, USA
KMAF 240307Z 2403/2424 10011KT P6SM BKN018 OVC030 TEMPO 2403/2406 1 1/2SM SHRA BR OVC009 FM240600 09012KT 2SM SHRA BR OVC009 TEMPO 2406/2410 1 1/2SM +SHRA BR OVC004 FM241200 08010KT 2SM BR OVC004 PROB30 2412/2418 1 1/2SM -SHRA BR FM242200 07006KT 5SM BR OVC009
Issued Valid From Valid To
Oct-24 @ 03:07 UTC
(2 hours ago)
Oct-24 @ 03:00 UTC
(2 hours ago)
Oct-25 @ 00:00 UTC
(in 19 hours)
Oct-24 @ 03:00 to Oct-24 @ 06:00
KMAF 240307Z 2403/2424 10011KT P6SM BKN018 OVC030
Wind Visibility Clouds
100° at 11 knots Greater than 6 miles
  • Broken at 1,800' AGL
  • Overcast at 3,000' AGL
Temporary Oct-24 @ 03:00 to Oct-24 @ 06:00
TEMPO 2403/2406 1 1/2SM SHRA BR OVC009
Visibility Clouds Conditions
1 1/2 miles
  • Overcast at 900' AGL
  • Rain
  • Mist
Temporary Oct-24 @ 06:00 to Oct-24 @ 10:00
TEMPO 2406/2410 1 1/2SM +SHRA BR OVC004
Visibility Clouds Conditions
1 1/2 miles
  • Overcast at 400' AGL
  • Heavy Rain
  • Mist
From Oct-24 @ 06:00 to Oct-24 @ 12:00
FM240600 09012KT 2SM SHRA BR OVC009
Wind Visibility Clouds Conditions
90° at 12 knots 2 miles
  • Overcast at 900' AGL
  • Rain
  • Mist
Probable  (Probability 30%) Oct-24 @ 12:00 to Oct-24 @ 18:00
PROB30 2412/2418 1 1/2SM -SHRA BR
Visibility Conditions
1 1/2 miles
  • Light Rain
  • Mist
From Oct-24 @ 12:00 to Oct-24 @ 22:00
FM241200 08010KT 2SM BR OVC004
Wind Visibility Clouds Conditions
80° at 10 knots 2 miles
  • Overcast at 400' AGL
  • Mist
From Oct-24 @ 22:00 to Oct-25 @ 00:00
FM242200 07006KT 5SM BR OVC009
Wind Visibility Clouds Conditions
70° at 6 knots 5 miles
  • Overcast at 900' AGL
  • Mist
KMAF 240307Z 2403/2424 10011KT P6SM BKN018 OVC030 TEMPO 2403/2406 1 1/2SM SHRA BR OVC009 FM240600 09012KT 2SM SHRA BR OVC009 TEMPO 2406/2410 1 1/2SM +SHRA BR OVC004 FM241200 08010KT 2SM BR OVC004 PROB30 2412/2418 1 1/2SM -SHRA BR FM242200 07006KT 5SM BR OVC009
Issued Oct-24 @ 03:07 UTC
(2 hours ago)
Valid From Oct-24 @ 03:00 UTC
(2 hours ago)
Valid To Oct-25 @ 00:00 UTC
(in 19 hours)
Oct-24 @ 03:00 - Oct-24 @ 06:00
Wind Visibility
100° at 11 knots Greater than 6 miles
Clouds
  • Broken at 1,800' AGL
  • Overcast at 3,000' AGL
Temporary Oct-24 @ 03:00 - Oct-24 @ 06:00
Clouds
  • Overcast at 900' AGL
Conditions
  • Rain
  • Mist
Temporary Oct-24 @ 06:00 - Oct-24 @ 10:00
Clouds
  • Overcast at 400' AGL
Conditions
  • Heavy Rain
  • Mist
From Oct-24 @ 06:00 - Oct-24 @ 12:00
Wind Visibility
90° at 12 knots 2 miles
Clouds
  • Overcast at 900' AGL
Conditions
  • Rain
  • Mist
Probability 30% Probable Oct-24 @ 12:00 - Oct-24 @ 18:00
Conditions
  • Light Rain
  • Mist
From Oct-24 @ 12:00 - Oct-24 @ 22:00
Wind Visibility
80° at 10 knots 2 miles
Clouds
  • Overcast at 400' AGL
Conditions
  • Mist
From Oct-24 @ 22:00 - Oct-25 @ 00:00
Wind Visibility
70° at 6 knots 5 miles
Clouds
  • Overcast at 900' AGL
Conditions
  • Mist